Time;durP1;ratioP1;P1;durP2;ratioP2;P2;SDS_P1;SDS_P2;PMS_P1;PMS_P2;Temp;Humidity;BMP_temperature;BMP_pressure;BME280_temperature;BME280_humidity;BME280_pressure;Samples;Min_cycle;Max_cycle;Signal;HPM_P1;HPM_P2
2023/08/25 00:00:41;;;;;;;12.20;5.80;;;;;;;16.00;100.00;99670.60;109009;1257;72453;-59
2023/08/25 00:03:38;;;;;;;11.90;5.90;;;;;;;16.02;100.00;99663.98;109052;1257;60887;-60
2023/08/25 00:06:24;;;;;;;11.40;5.70;;;;;;;16.05;100.00;99660.40;109106;1257;60315;-60
2023/08/25 00:09:10;;;;;;;16.60;6.20;;;;;;;16.11;100.00;99656.26;109115;1257;73042;-59
2023/08/25 00:11:56;;;;;;;17.10;6.40;;;;;;;16.16;100.00;99650.73;109127;1257;67719;-59
2023/08/25 00:14:42;;;;;;;14.90;6.20;;;;;;;16.20;100.00;99643.61;109102;1257;71060;-59
2023/08/25 00:17:28;;;;;;;11.60;5.20;;;;;;;16.23;100.00;99636.17;109059;1257;59881;-59
2023/08/25 00:20:14;;;;;;;12.50;5.60;;;;;;;16.26;100.00;99631.38;109138;1257;59999;-60
2023/08/25 00:23:00;;;;;;;10.30;4.70;;;;;;;16.28;100.00;99628.83;109130;1257;73015;-59
2023/08/25 00:25:47;;;;;;;10.80;4.70;;;;;;;16.28;100.00;99622.52;109129;1257;68900;-60
2023/08/25 00:28:33;;;;;;;10.50;4.70;;;;;;;16.28;100.00;99626.64;109139;1257;73614;-59
2023/08/25 00:31:19;;;;;;;9.90;4.80;;;;;;;16.29;100.00;99623.26;108995;1260;60563;-61
2023/08/25 00:34:06;;;;;;;10.80;4.60;;;;;;;16.30;100.00;99625.66;109119;1257;59786;-59
2023/08/25 00:36:52;;;;;;;10.50;4.90;;;;;;;16.30;100.00;99624.23;109135;1257;72997;-60
2023/08/25 00:39:39;;;;;;;10.50;4.00;;;;;;;16.32;100.00;99628.13;109103;1257;68939;-59
2023/08/25 00:42:25;;;;;;;11.20;4.30;;;;;;;16.33;100.00;99628.46;109067;1257;71613;-60
2023/08/25 00:45:11;;;;;;;13.90;4.80;;;;;;;16.36;100.00;99624.93;109098;1257;60665;-60
2023/08/25 00:47:57;;;;;;;13.30;5.70;;;;;;;16.39;100.00;99623.19;109061;1258;61298;-59
2023/08/25 00:50:44;;;;;;;14.20;5.60;;;;;;;16.44;100.00;99614.90;109032;1258;73985;-58
2023/08/25 00:53:35;;;;;;;13.60;5.60;;;;;;;16.51;100.00;99612.20;109072;1257;69016;-58
2023/08/25 00:56:22;;;;;;;13.30;5.30;;;;;;;16.55;100.00;99611.73;109116;1257;73439;-59
2023/08/25 00:59:09;;;;;;;13.50;5.30;;;;;;;16.62;100.00;99613.66;109107;1257;60676;-60
2023/08/25 01:01:56;;;;;;;14.60;5.70;;;;;;;16.68;100.00;99610.94;109098;1257;58067;-58
2023/08/25 01:04:43;;;;;;;14.10;6.10;;;;;;;16.74;100.00;99615.78;109070;1257;72835;-60
2023/08/25 01:07:30;;;;;;;14.30;6.30;;;;;;;16.77;100.00;99616.27;109123;1257;68001;-60
2023/08/25 01:10:25;;;;;;;12.20;5.00;;;;;;;16.80;100.00;99615.60;109092;1258;73752;-59
2023/08/25 01:13:23;;;;;;;11.80;4.80;;;;;;;16.84;100.00;99613.67;109029;1258;60465;-59
2023/08/25 01:16:15;;;;;;;10.40;4.50;;;;;;;16.91;100.00;99609.39;109039;1258;60498;-60
2023/08/25 01:19:05;;;;;;;10.60;4.60;;;;;;;16.97;100.00;99621.50;108989;1260;72980;-63
2023/08/25 01:21:51;;;;;;;11.10;4.50;;;;;;;17.00;100.00;99618.58;109041;1258;68650;-60
2023/08/25 01:24:41;;;;;;;11.60;4.50;;;;;;;17.02;100.00;99619.23;109043;1258;72452;-61
2023/08/25 01:27:28;;;;;;;11.50;4.80;;;;;;;17.06;100.00;99619.73;108999;1258;59387;-60
2023/08/25 01:30:14;;;;;;;11.80;5.10;;;;;;;17.08;100.00;99620.41;109064;1258;58833;-60
2023/08/25 01:33:05;;;;;;;17.70;5.50;;;;;;;17.10;100.00;99619.96;109038;1258;73148;-58
2023/08/25 01:36:20;;;;;;;13.40;4.90;;;;;;;17.12;100.00;99616.57;109117;1258;67816;-59
2023/08/25 01:39:13;;;;;;;14.30;4.80;;;;;;;17.13;100.00;99616.91;109062;1258;73428;-60
2023/08/25 01:42:06;;;;;;;12.10;4.40;;;;;;;17.16;100.00;99614.70;109038;1260;59563;-60
2023/08/25 01:44:55;;;;;;;9.10;3.80;;;;;;;17.18;100.00;99607.09;109091;1258;60196;-59
2023/08/25 01:47:42;;;;;;;9.80;3.90;;;;;;;17.20;100.00;99601.11;109056;1258;71817;-58
2023/08/25 01:50:35;;;;;;;12.40;4.00;;;;;;;17.23;99.90;99594.54;109005;1258;67771;-58
2023/08/25 01:53:21;;;;;;;9.30;4.00;;;;;;;17.26;99.77;99588.52;108991;1258;73690;-60
2023/08/25 01:56:09;;;;;;;9.80;3.20;;;;;;;17.29;99.60;99588.88;109031;1258;59495;-59
2023/08/25 01:58:56;;;;;;;9.40;3.50;;;;;;;17.30;99.22;99587.49;109058;1258;58810;-60
2023/08/25 02:01:42;;;;;;;8.20;3.30;;;;;;;17.33;99.23;99582.84;109095;1258;71485;-59
2023/08/25 02:04:28;;;;;;;8.50;3.50;;;;;;;17.34;98.87;99580.59;109058;1258;68982;-60
2023/08/25 02:07:16;;;;;;;7.50;3.10;;;;;;;17.35;98.71;99573.99;109043;1258;72603;-60
2023/08/25 02:10:02;;;;;;;8.20;3.20;;;;;;;17.36;98.45;99575.27;109036;1258;58148;-60
2023/08/25 02:12:49;;;;;;;8.20;3.50;;;;;;;17.38;98.13;99574.40;109063;1258;60443;-60
2023/08/25 02:15:36;;;;;;;8.80;3.30;;;;;;;17.38;97.76;99571.54;109100;1258;73924;-59
2023/08/25 02:18:22;;;;;;;8.40;3.50;;;;;;;17.37;97.65;99570.20;109071;1258;68171;-59
2023/08/25 02:21:09;;;;;;;9.10;3.20;;;;;;;17.38;97.28;99572.92;109072;1258;73514;-62
2023/08/25 02:23:55;;;;;;;8.40;3.20;;;;;;;17.39;97.13;99565.36;109025;1258;59452;-60
2023/08/25 02:26:42;;;;;;;9.20;3.70;;;;;;;17.39;97.49;99560.29;109017;1258;61272;-60
2023/08/25 02:29:28;;;;;;;10.50;3.80;;;;;;;17.39;97.68;99556.33;109052;1258;73829;-60
2023/08/25 02:32:15;;;;;;;8.90;3.70;;;;;;;17.39;97.78;99551.89;109045;1259;68779;-60
2023/08/25 02:35:01;;;;;;;7.70;3.70;;;;;;;17.38;97.74;99550.20;109029;1258;71247;-60
2023/08/25 02:38:06;;;;;;;10.40;3.50;;;;;;;17.36;97.98;99546.63;109106;1258;59354;-59
2023/08/25 02:40:52;;;;;;;11.80;3.80;;;;;;;17.34;98.25;99542.77;109040;1258;60394;-59
2023/08/25 02:43:39;;;;;;;7.30;3.20;;;;;;;17.33;98.49;99540.83;109077;1258;73969;-60
2023/08/25 02:46:25;;;;;;;9.70;3.60;;;;;;;17.30;98.27;99538.65;109071;1258;68632;-59
2023/08/25 02:49:12;;;;;;;10.50;3.60;;;;;;;17.27;98.64;99538.66;109064;1258;73661;-58
2023/08/25 02:51:58;;;;;;;8.10;3.50;;;;;;;17.22;98.89;99533.67;108974;1258;59569;-60
2023/08/25 02:54:45;;;;;;;9.20;3.50;;;;;;;17.18;99.13;99528.58;109039;1259;60317;-59
2023/08/25 02:57:32;;;;;;;10.10;3.70;;;;;;;17.15;99.49;99525.20;109057;1258;73922;-60
2023/08/25 03:00:25;;;;;;;9.10;3.90;;;;;;;17.12;99.74;99527.67;109056;1258;68772;-59
2023/08/25 03:03:11;;;;;;;7.90;3.40;;;;;;;17.09;99.87;99523.92;109027;1258;73609;-62
2023/08/25 03:05:59;;;;;;;9.30;3.50;;;;;;;17.04;99.85;99525.70;109056;1257;59599;-60
2023/08/25 03:08:45;;;;;;;8.50;2.90;;;;;;;17.00;99.73;99523.02;109089;1257;60072;-59
2023/08/25 03:11:32;;;;;;;9.10;3.60;;;;;;;16.99;99.49;99525.69;109145;1257;72079;-61
2023/08/25 03:14:20;;;;;;;8.40;3.30;;;;;;;16.97;99.32;99521.05;109090;1258;68621;-59
2023/08/25 03:17:06;;;;;;;8.90;3.10;;;;;;;16.96;98.89;99521.02;109044;1259;72661;-60
2023/08/25 03:19:53;;;;;;;9.00;3.20;;;;;;;16.95;98.36;99521.54;108968;1258;59303;-60
2023/08/25 03:22:39;;;;;;;8.00;3.40;;;;;;;16.94;98.13;99517.29;109111;1257;59617;-58
2023/08/25 03:25:26;;;;;;;11.00;3.50;;;;;;;16.95;97.90;99512.02;109091;1258;72893;-60
2023/08/25 03:28:12;;;;;;;8.60;3.70;;;;;;;16.97;97.93;99504.58;109067;1258;67919;-59
2023/08/25 03:30:58;;;;;;;10.30;3.20;;;;;;;16.99;97.77;99500.82;109057;1258;73751;-60
2023/08/25 03:33:44;;;;;;;9.90;3.10;;;;;;;16.99;97.04;99499.67;109040;1258;58939;-59
2023/08/25 03:36:30;;;;;;;7.70;3.00;;;;;;;16.98;96.86;99497.70;109129;1258;60193;-59
2023/08/25 03:39:18;;;;;;;8.70;3.40;;;;;;;16.97;96.69;99497.63;109023;1258;71993;-61
2023/08/25 03:42:06;;;;;;;9.00;3.40;;;;;;;16.95;96.71;99500.98;109083;1258;67781;-60
2023/08/25 03:44:52;;;;;;;8.40;3.60;;;;;;;16.92;96.56;99500.71;109101;1258;73690;-59
2023/08/25 03:47:38;;;;;;;8.10;3.20;;;;;;;16.90;96.61;99497.53;108992;1258;59910;-63
2023/08/25 03:50:25;;;;;;;9.30;3.30;;;;;;;16.90;96.50;99491.95;108939;1258;60228;-59
2023/08/25 03:53:12;;;;;;;10.00;4.00;;;;;;;16.93;96.32;99485.10;108967;1258;73472;-62
2023/08/25 03:55:57;;;;;;;8.40;3.50;;;;;;;16.97;95.90;99484.61;108961;1258;67885;-63
2023/08/25 03:58:45;;;;;;;7.40;3.30;;;;;;;16.99;95.48;99482.71;109043;1258;73722;-62
2023/08/25 04:01:31;;;;;;;9.40;3.30;;;;;;;17.04;94.66;99483.25;108995;1258;59989;-61
2023/08/25 04:04:17;;;;;;;8.10;3.30;;;;;;;17.09;93.88;99483.94;109013;1258;60104;-60
2023/08/25 04:07:04;;;;;;;10.40;3.90;;;;;;;17.15;93.15;99477.19;109014;1258;72973;-61
2023/08/25 04:09:50;;;;;;;9.40;3.80;;;;;;;17.20;92.47;99474.91;109035;1258;67940;-61
2023/08/25 04:12:36;;;;;;;8.70;3.80;;;;;;;17.25;91.74;99475.45;109017;1257;73562;-60
2023/08/25 04:15:22;;;;;;;7.70;3.40;;;;;;;17.29;91.51;99472.98;109002;1258;60491;-60
2023/08/25 04:18:09;;;;;;;10.40;4.30;;;;;;;17.33;90.61;99470.91;109048;1258;60016;-62
2023/08/25 04:20:55;;;;;;;8.10;4.00;;;;;;;17.39;89.92;99468.34;109106;1258;73875;-61
2023/08/25 04:23:42;;;;;;;8.60;4.20;;;;;;;17.44;89.60;99467.38;108990;1258;68657;-62
2023/08/25 04:26:28;;;;;;;9.80;4.10;;;;;;;17.48;89.35;99467.03;109006;1258;73885;-60
2023/08/25 04:29:14;;;;;;;8.60;4.30;;;;;;;17.50;89.21;99466.31;109027;1258;57843;-60
2023/08/25 04:32:01;;;;;;;8.50;3.70;;;;;;;17.53;89.18;99463.46;108979;1258;61384;-61
2023/08/25 04:34:57;;;;;;;10.40;4.20;;;;;;;17.53;88.98;99457.15;108974;1258;72636;-62
2023/08/25 04:37:47;;;;;;;10.20;4.10;;;;;;;17.53;88.76;99454.30;109074;1257;68208;-60
2023/08/25 04:40:33;;;;;;;11.80;4.30;;;;;;;17.53;88.72;99448.77;109062;1257;72498;-61
2023/08/25 04:43:20;;;;;;;11.60;4.40;;;;;;;17.53;88.87;99442.09;108997;1257;58248;-60
2023/08/25 04:46:07;;;;;;;13.00;4.40;;;;;;;17.56;88.96;99437.54;109091;1257;59043;-60
2023/08/25 04:48:53;;;;;;;14.10;4.40;;;;;;;17.57;88.79;99440.95;109021;1257;73093;-60
2023/08/25 04:51:40;;;;;;;9.60;4.10;;;;;;;17.57;88.54;99439.64;109057;1257;66598;-61
2023/08/25 04:54:27;;;;;;;10.60;3.90;;;;;;;17.60;88.51;99440.89;109085;1257;73729;-60
2023/08/25 04:57:14;;;;;;;13.40;4.10;;;;;;;17.65;87.77;99434.36;109086;1257;59549;-60
2023/08/25 05:00:05;;;;;;;11.20;3.90;;;;;;;17.73;87.58;99435.13;109083;1257;61416;-61
2023/08/25 05:02:52;;;;;;;10.40;3.60;;;;;;;17.81;86.76;99430.55;109079;1257;71983;-60
2023/08/25 05:05:39;;;;;;;10.20;3.70;;;;;;;17.89;86.11;99434.29;109091;1257;68706;-61
2023/08/25 05:08:26;;;;;;;9.70;3.80;;;;;;;17.95;85.79;99430.23;109023;1257;73837;-64
2023/08/25 05:11:14;;;;;;;10.10;4.30;;;;;;;18.01;86.01;99432.69;109053;1257;57835;-62
2023/08/25 05:14:01;;;;;;;11.70;4.30;;;;;;;18.09;85.92;99428.62;109008;1257;61208;-62
2023/08/25 05:16:47;;;;;;;15.10;4.20;;;;;;;18.18;85.67;99427.81;109064;1257;74223;-62
2023/08/25 05:19:44;;;;;;;13.10;4.30;;;;;;;18.28;85.42;99432.17;109097;1257;68505;-63
2023/08/25 05:22:31;;;;;;;13.00;4.10;;;;;;;18.36;84.48;99428.57;109030;1257;71840;-61
2023/08/25 05:25:21;;;;;;;11.20;4.00;;;;;;;18.41;83.57;99421.51;109088;1257;57621;-63
2023/08/25 05:28:08;;;;;;;18.40;4.00;;;;;;;18.42;82.77;99420.61;109053;1259;61502;-64
2023/08/25 05:30:54;;;;;;;11.50;4.00;;;;;;;18.44;82.89;99413.26;109116;1257;72826;-61
2023/08/25 05:33:53;;;;;;;16.50;3.80;;;;;;;18.47;82.58;99409.86;109006;1258;67663;-61
2023/08/25 05:36:48;;;;;;;11.00;3.60;;;;;;;18.46;82.10;99409.02;108985;1258;73306;-61
2023/08/25 05:39:34;;;;;;;8.70;3.60;;;;;;;18.45;82.02;99404.70;108986;1258;57387;-62
2023/08/25 05:42:21;;;;;;;9.50;3.60;;;;;;;18.41;81.93;99394.27;109013;1259;61343;-62
2023/08/25 05:45:08;;;;;;;11.10;3.80;;;;;;;18.39;81.51;99389.05;109035;1258;73760;-62
2023/08/25 05:47:54;;;;;;;9.20;3.70;;;;;;;18.41;81.81;99389.43;109022;1258;66328;-63
2023/08/25 05:50:42;;;;;;;8.50;3.30;;;;;;;18.42;81.64;99384.76;109017;1258;73484;-64
2023/08/25 05:53:28;;;;;;;10.60;3.50;;;;;;;18.46;81.75;99382.33;109025;1257;58004;-64
2023/08/25 05:56:14;;;;;;;11.10;3.60;;;;;;;18.52;81.81;99378.47;109123;1257;60189;-64
2023/08/25 05:59:01;;;;;;;12.10;3.70;;;;;;;18.60;81.32;99376.86;109112;1257;74515;-62
2023/08/25 06:01:47;;;;;;;10.10;3.50;;;;;;;18.68;81.24;99372.20;108954;1257;67889;-61
2023/08/25 06:04:34;;;;;;;12.00;3.50;;;;;;;18.79;80.92;99369.70;109103;1257;72627;-60
2023/08/25 06:07:20;;;;;;;11.00;3.30;;;;;;;18.89;80.39;99375.23;109044;1259;60679;-60
2023/08/25 06:10:08;;;;;;;14.00;4.10;;;;;;;18.95;79.28;99373.29;109069;1258;61189;-63
2023/08/25 06:12:54;;;;;;;10.00;3.40;;;;;;;18.98;79.04;99374.89;109048;1257;72873;-61
2023/08/25 06:15:40;;;;;;;10.10;3.50;;;;;;;19.01;78.42;99377.00;109170;1257;67431;-63
2023/08/25 06:18:26;;;;;;;9.50;3.20;;;;;;;19.06;78.46;99372.81;109069;1257;72852;-61
2023/08/25 06:21:13;;;;;;;9.40;3.90;;;;;;;19.12;78.22;99364.54;109021;1258;58247;-63
2023/08/25 06:24:00;;;;;;;11.20;3.70;;;;;;;19.21;78.21;99366.82;109090;1257;60217;-62
2023/08/25 06:26:46;;;;;;;14.50;3.70;;;;;;;19.34;77.65;99367.11;109104;1258;74009;-60
2023/08/25 06:29:32;;;;;;;10.50;3.90;;;;;;;19.47;77.32;99365.70;109086;1257;67854;-62
2023/08/25 06:32:18;;;;;;;10.80;3.70;;;;;;;19.61;76.91;99360.33;109066;1258;73780;-62
2023/08/25 06:35:05;;;;;;;10.00;3.40;;;;;;;19.79;76.68;99362.80;109069;1257;57966;-70
2023/08/25 06:37:51;;;;;;;14.90;3.80;;;;;;;20.02;75.63;99368.05;109146;1257;60353;-70
2023/08/25 06:40:38;;;;;;;15.90;3.80;;;;;;;20.33;74.41;99370.84;109101;1260;73995;-71
2023/08/25 06:43:24;;;;;;;15.40;4.00;;;;;;;20.63;73.73;99374.08;108926;1257;66983;-70
2023/08/25 06:46:11;;;;;;;12.40;3.60;;;;;;;20.93;72.26;99368.75;109053;1260;72512;-71
2023/08/25 06:48:58;;;;;;;12.70;3.70;;;;;;;21.16;71.34;99358.30;108988;1257;57753;-71
2023/08/25 06:51:45;;;;;;;17.40;3.50;;;;;;;21.36;69.70;99347.45;109109;1258;58760;-69
2023/08/25 06:54:31;;;;;;;12.90;3.40;;;;;;;21.46;68.94;99341.30;109077;1259;71530;-69
2023/08/25 06:57:17;;;;;;;13.00;3.30;;;;;;;21.57;69.13;99340.55;109118;1259;67846;-69
2023/08/25 07:00:06;;;;;;;12.00;3.40;;;;;;;21.71;67.95;99336.53;109055;1258;72196;-70
2023/08/25 07:02:52;;;;;;;16.00;3.40;;;;;;;21.83;67.20;99335.85;109022;1257;58022;-71
2023/08/25 07:05:40;;;;;;;12.80;3.40;;;;;;;21.94;66.92;99337.72;109030;1257;60188;-67
2023/08/25 07:08:26;;;;;;;11.00;2.90;;;;;;;22.04;66.10;99342.27;109029;1259;74085;-69
2023/08/25 07:11:12;;;;;;;10.90;3.00;;;;;;;22.15;65.95;99339.05;109092;1257;68477;-71
2023/08/25 07:13:59;;;;;;;13.60;3.40;;;;;;;22.25;64.67;99340.30;109094;1258;72496;-70
2023/08/25 07:16:45;;;;;;;11.80;3.20;;;;;;;22.41;63.96;99335.86;109056;1258;57337;-67
2023/08/25 07:19:32;;;;;;;10.70;2.90;;;;;;;22.71;63.88;99333.27;109105;1257;61393;-68
2023/08/25 07:22:18;;;;;;;11.40;2.90;;;;;;;23.13;62.55;99329.70;109119;1258;74133;-70
2023/08/25 07:25:05;;;;;;;11.90;3.10;;;;;;;23.41;61.72;99329.12;109065;1260;68052;-69
2023/08/25 07:27:51;;;;;;;10.20;2.70;;;;;;;23.65;61.07;99328.23;109121;1257;72575;-70
2023/08/25 07:30:38;;;;;;;11.00;2.70;;;;;;;23.83;60.89;99319.63;109136;1257;57211;-68
2023/08/25 07:33:25;;;;;;;10.40;2.80;;;;;;;23.88;59.16;99318.81;109146;1257;59072;-69
2023/08/25 07:36:11;;;;;;;11.20;3.00;;;;;;;23.83;59.34;99317.77;109132;1260;74076;-69
2023/08/25 07:38:57;;;;;;;8.90;2.80;;;;;;;23.85;59.11;99317.82;109139;1257;68597;-69
2023/08/25 07:41:44;;;;;;;9.70;2.70;;;;;;;23.92;58.97;99317.95;109081;1257;73528;-68
2023/08/25 07:44:30;;;;;;;11.60;3.30;;;;;;;23.97;58.44;99313.17;109095;1257;57869;-71
2023/08/25 07:47:18;;;;;;;9.20;2.70;;;;;;;24.07;58.64;99316.23;109151;1257;61294;-68
2023/08/25 07:50:06;;;;;;;9.00;3.20;;;;;;;24.17;58.46;99313.27;109047;1257;73838;-69
2023/08/25 07:52:53;;;;;;;9.50;2.60;;;;;;;24.28;58.03;99309.52;109163;1257;67910;-69
2023/08/25 07:55:39;;;;;;;10.20;2.80;;;;;;;24.45;57.51;99310.31;109131;1258;73539;-69
2023/08/25 07:58:26;;;;;;;11.30;2.80;;;;;;;24.66;57.06;99310.02;109033;1257;57293;-70
2023/08/25 08:01:13;;;;;;;10.50;2.60;;;;;;;24.91;54.75;99312.15;109121;1257;59072;-69
2023/08/25 08:04:00;;;;;;;10.70;3.10;;;;;;;25.24;53.77;99303.06;109167;1258;71639;-70
2023/08/25 08:06:47;;;;;;;12.00;2.80;;;;;;;25.59;52.36;99301.22;109055;1257;68057;-68
2023/08/25 08:09:34;;;;;;;16.50;3.20;;;;;;;25.82;51.37;99298.31;109109;1257;73692;-69
2023/08/25 08:12:20;;;;;;;9.10;2.60;;;;;;;25.80;50.75;99293.95;109043;1257;57545;-68
2023/08/25 08:15:09;;;;;;;8.90;2.70;;;;;;;25.73;50.92;99295.72;109060;1257;60212;-70
2023/08/25 08:17:56;;;;;;;11.20;2.60;;;;;;;25.61;51.31;99299.20;109083;1257;74066;-67
2023/08/25 08:20:43;;;;;;;7.90;2.30;;;;;;;25.47;51.58;99303.56;109130;1257;69373;-68
2023/08/25 08:23:30;;;;;;;11.30;2.60;;;;;;;25.31;52.54;99308.06;109120;1258;71575;-69
2023/08/25 08:26:17;;;;;;;8.50;2.80;;;;;;;25.11;53.12;99309.67;109132;1258;57348;-67
2023/08/25 08:29:04;;;;;;;9.30;2.50;;;;;;;24.89;54.21;99314.55;109158;1257;59028;-70
2023/08/25 08:31:50;;;;;;;7.80;2.90;;;;;;;24.83;54.86;99320.48;109112;1257;71412;-69
2023/08/25 08:34:36;;;;;;;8.80;2.60;;;;;;;24.85;55.68;99323.75;109118;1257;68689;-71
2023/08/25 08:37:22;;;;;;;8.30;2.50;;;;;;;24.90;55.81;99326.31;109043;1257;72546;-69
2023/08/25 08:40:09;;;;;;;8.30;2.40;;;;;;;24.87;56.27;99328.11;109080;1257;57217;-73
2023/08/25 08:42:58;;;;;;;8.30;2.50;;;;;;;24.82;56.09;99323.17;109057;1257;58764;-69
2023/08/25 08:45:51;;;;;;;9.30;2.30;;;;;;;24.68;56.44;99320.84;109084;1260;72906;-72
2023/08/25 08:48:39;;;;;;;8.80;2.90;;;;;;;24.60;57.46;99316.61;109051;1257;68009;-69
2023/08/25 08:51:30;;;;;;;8.80;2.60;;;;;;;24.50;57.89;99319.16;109114;1257;73539;-70
2023/08/25 08:54:22;;;;;;;10.00;2.90;;;;;;;24.38;57.65;99314.21;108964;1265;57756;-71
2023/08/25 08:57:12;;;;;;;7.30;2.70;;;;;;;24.14;58.15;99313.36;109152;1258;61075;-71
2023/08/25 09:00:10;;;;;;;8.60;2.90;;;;;;;24.01;58.75;99312.76;109124;1258;74075;-70
2023/08/25 09:03:05;;;;;;;8.70;2.70;;;;;;;23.93;59.30;99309.63;109138;1257;67608;-70
2023/08/25 09:05:59;;;;;;;8.80;3.10;;;;;;;23.85;60.52;99309.69;108993;1258;71811;-69
2023/08/25 09:08:52;;;;;;;10.50;3.10;;;;;;;23.70;60.57;99311.50;109048;1257;57637;-71
2023/08/25 09:11:40;;;;;;;10.80;3.20;;;;;;;23.58;60.11;99306.03;108902;1262;59097;-69
2023/08/25 09:14:30;;;;;;;8.60;2.90;;;;;;;23.46;60.65;99304.83;109109;1261;74039;-69
2023/08/25 09:17:19;;;;;;;8.20;2.90;;;;;;;23.38;61.26;99297.56;109011;1257;68532;-69
2023/08/25 09:20:10;;;;;;;7.70;2.90;;;;;;;23.34;61.12;99296.52;108990;1258;72702;-70
2023/08/25 09:23:00;;;;;;;9.10;2.70;;;;;;;23.35;61.77;99294.46;109123;1258;58670;-71
2023/08/25 09:25:49;;;;;;;9.90;3.00;;;;;;;23.43;61.53;99294.60;108961;1257;61358;-71
2023/08/25 09:28:37;;;;;;;9.30;3.30;;;;;;;23.60;61.03;99294.74;109143;1257;73770;-71
2023/08/25 09:31:29;;;;;;;8.70;3.10;;;;;;;23.80;59.44;99295.14;109032;1257;67035;-73
2023/08/25 09:34:18;;;;;;;7.90;3.00;;;;;;;24.05;57.70;99290.34;108947;1257;72737;-70
2023/08/25 09:37:07;;;;;;;9.10;3.40;;;;;;;24.43;57.64;99291.34;108978;1259;57840;-69
2023/08/25 09:39:58;;;;;;;9.20;2.50;;;;;;;24.72;56.67;99286.67;108889;1259;60214;-68
2023/08/25 09:42:45;;;;;;;8.70;2.70;;;;;;;25.02;55.44;99281.84;109005;1258;73870;-71
2023/08/25 09:45:33;;;;;;;6.70;2.60;;;;;;;25.23;55.81;99274.80;109077;1258;67125;-69
2023/08/25 09:48:19;;;;;;;9.40;2.70;;;;;;;25.43;54.29;99282.17;109012;1258;72630;-68
2023/08/25 09:51:06;;;;;;;12.20;2.80;;;;;;;25.52;52.46;99284.50;108962;1258;57849;-70
2023/08/25 09:53:53;;;;;;;7.20;2.50;;;;;;;25.44;52.13;99281.21;108918;1259;60074;-69
2023/08/25 09:56:42;;;;;;;8.80;2.40;;;;;;;25.34;51.41;99285.38;109031;1258;72649;-70
2023/08/25 09:59:29;;;;;;;8.40;2.60;;;;;;;25.19;51.58;99281.65;108990;1258;67716;-69
2023/08/25 10:02:15;;;;;;;8.50;2.80;;;;;;;25.09;51.30;99285.00;109010;1258;73259;-71
2023/08/25 10:05:04;;;;;;;8.80;2.50;;;;;;;25.33;51.15;99278.54;108906;1258;57297;-67
2023/08/25 10:07:51;;;;;;;10.60;2.80;;;;;;;25.64;50.51;99277.59;109004;1258;60489;-72
2023/08/25 10:10:39;;;;;;;8.50;2.40;;;;;;;25.86;50.52;99283.95;109049;1258;70517;-72
2023/08/25 10:13:28;;;;;;;8.90;2.70;;;;;;;25.96;50.02;99284.45;109008;1258;68709;-71
2023/08/25 10:16:15;;;;;;;6.20;2.40;;;;;;;25.99;50.00;99289.21;109016;1258;71526;-70
2023/08/25 10:19:04;;;;;;;9.70;2.60;;;;;;;25.86;50.82;99284.02;108972;1258;57326;-72
2023/08/25 10:21:53;;;;;;;10.10;2.60;;;;;;;25.78;50.76;99286.66;108975;1258;61416;-70
2023/08/25 10:24:41;;;;;;;8.80;2.80;;;;;;;25.64;50.67;99289.89;109039;1259;73764;-70
2023/08/25 10:27:28;;;;;;;9.10;3.00;;;;;;;25.45;51.00;99293.86;109064;1259;66998;-69
2023/08/25 10:30:16;;;;;;;12.30;2.90;;;;;;;25.30;51.84;99291.15;108960;1258;72932;-70
2023/08/25 10:33:09;;;;;;;8.70;2.90;;;;;;;25.14;52.16;99290.86;109016;1260;58147;-68
2023/08/25 10:35:55;;;;;;;7.90;2.80;;;;;;;24.96;52.29;99288.71;109043;1259;61059;-69
2023/08/25 10:39:01;;;;;;;8.40;3.20;;;;;;;24.84;52.88;99292.59;109045;1258;73126;-69
2023/08/25 10:41:56;;;;;;;8.70;3.10;;;;;;;24.74;53.59;99288.63;109029;1258;67919;-68
2023/08/25 10:44:43;;;;;;;9.70;3.60;;;;;;;24.68;53.96;99294.67;108928;1258;72593;-67
2023/08/25 10:47:30;;;;;;;9.70;3.20;;;;;;;24.62;54.09;99293.21;108963;1259;57460;-69
2023/08/25 10:50:22;;;;;;;8.00;3.00;;;;;;;24.66;54.60;99291.73;109021;1259;60172;-72
2023/08/25 10:53:41;;;;;;;14.50;3.30;;;;;;;24.77;54.45;99292.85;109030;1258;74003;-67
2023/08/25 10:56:28;;;;;;;9.50;3.20;;;;;;;25.12;53.81;99291.06;109055;1258;68170;-71
2023/08/25 10:59:15;;;;;;;9.50;3.20;;;;;;;25.41;52.78;99284.72;109015;1259;72460;-70
2023/08/25 11:02:01;;;;;;;8.30;3.30;;;;;;;25.73;52.37;99276.15;108934;1260;59011;-69
2023/08/25 11:04:47;;;;;;;8.70;2.90;;;;;;;26.04;50.42;99272.04;109062;1258;60078;-68
2023/08/25 11:07:43;;;;;;;9.10;2.90;;;;;;;26.29;49.45;99273.49;109021;1262;74024;-68
2023/08/25 11:10:35;;;;;;;9.50;3.20;;;;;;;26.42;48.21;99270.48;109026;1259;67821;-68
2023/08/25 11:13:22;;;;;;;8.60;3.10;;;;;;;26.95;48.09;99267.05;109016;1262;71440;-69
2023/08/25 11:16:11;;;;;;;12.70;3.50;;;;;;;27.25;46.63;99268.85;108978;1260;57650;-69
2023/08/25 11:18:58;;;;;;;8.70;3.40;;;;;;;27.91;45.32;99270.78;109044;1260;60453;-70
2023/08/25 11:21:44;;;;;;;9.90;3.10;;;;;;;28.07;44.98;99269.80;109014;1258;73993;-68
2023/08/25 11:24:32;;;;;;;9.90;3.40;;;;;;;28.28;44.70;99265.75;109003;1259;67888;-69
2023/08/25 11:27:22;;;;;;;8.50;3.10;;;;;;;28.77;43.56;99265.77;108953;1258;73659;-70
2023/08/25 11:30:10;;;;;;;8.10;3.00;;;;;;;29.04;43.32;99259.27;108926;1262;57536;-69
2023/08/25 11:32:57;;;;;;;10.90;3.50;;;;;;;29.12;42.64;99255.00;109006;1259;59036;-69
2023/08/25 11:35:44;;;;;;;8.10;3.00;;;;;;;29.42;41.02;99253.10;109002;1260;73756;-70
2023/08/25 11:38:31;;;;;;;8.10;2.60;;;;;;;29.97;39.85;99251.60;109073;1260;67589;-72
2023/08/25 11:41:18;;;;;;;8.70;2.80;;;;;;;30.29;38.59;99252.10;108967;1261;73743;-69
2023/08/25 11:44:05;;;;;;;8.50;2.90;;;;;;;30.85;37.06;99248.02;108910;1260;58098;-71
2023/08/25 11:46:53;;;;;;;10.30;2.90;;;;;;;30.85;36.96;99254.98;109024;1259;61166;-69
2023/08/25 11:49:41;;;;;;;7.60;2.90;;;;;;;30.67;37.25;99254.25;109024;1260;73857;-68
2023/08/25 11:52:28;;;;;;;8.40;2.90;;;;;;;30.54;37.49;99242.48;109022;1263;67836;-72
2023/08/25 11:55:15;;;;;;;11.10;3.30;;;;;;;30.63;37.90;99237.23;109012;1261;72454;-70
2023/08/25 11:58:11;;;;;;;7.40;2.90;;;;;;;30.58;37.45;99237.17;108904;1260;57864;-72
2023/08/25 12:01:06;;;;;;;10.50;2.70;;;;;;;30.52;38.03;99238.81;109018;1258;60120;-70
2023/08/25 12:03:57;;;;;;;8.00;2.80;;;;;;;30.50;38.10;99237.09;109116;1259;74229;-70
2023/08/25 12:06:44;;;;;;;11.60;2.60;;;;;;;30.21;38.64;99230.51;108957;1260;68785;-71
2023/08/25 12:09:30;;;;;;;8.00;3.00;;;;;;;29.93;38.80;99228.09;108975;1261;73686;-70
2023/08/25 12:12:16;;;;;;;9.20;2.80;;;;;;;29.40;39.31;99221.27;109071;1257;57765;-71
2023/08/25 12:15:07;;;;;;;9.00;2.70;;;;;;;29.01;40.18;99218.98;108947;1260;60244;-71
2023/08/25 12:17:53;;;;;;;9.60;3.30;;;;;;;28.67;40.89;99216.09;108990;1260;74395;-70
2023/08/25 12:20:44;;;;;;;7.80;3.00;;;;;;;28.22;41.21;99214.64;109014;1259;67799;-71
2023/08/25 12:23:39;;;;;;;9.20;3.10;;;;;;;27.82;42.48;99208.77;109017;1257;71903;-70
2023/08/25 12:26:26;;;;;;;9.40;3.30;;;;;;;27.73;43.68;99212.98;109065;1257;58208;-70
2023/08/25 12:29:13;;;;;;;10.20;3.40;;;;;;;27.69;44.02;99212.82;109089;1257;60781;-70
2023/08/25 12:31:59;;;;;;;8.80;3.30;;;;;;;27.59;44.68;99211.16;109099;1257;72772;-69
2023/08/25 12:34:45;;;;;;;8.90;3.50;;;;;;;27.52;44.95;99207.13;109118;1257;67615;-69
2023/08/25 12:37:32;;;;;;;11.20;3.40;;;;;;;27.42;45.05;99199.83;109046;1257;71528;-70
2023/08/25 12:40:21;;;;;;;10.20;4.00;;;;;;;27.32;45.34;99187.20;109068;1257;58086;-69
2023/08/25 12:43:07;;;;;;;8.10;3.60;;;;;;;27.37;45.90;99191.84;109062;1257;59295;-68
2023/08/25 12:45:54;;;;;;;8.80;3.40;;;;;;;27.35;45.27;99186.70;109026;1259;72881;-70
2023/08/25 12:48:40;;;;;;;8.90;3.50;;;;;;;27.31;45.80;99185.33;108964;1258;69175;-67
2023/08/25 12:51:27;;;;;;;10.60;3.60;;;;;;;27.28;45.35;99184.74;109019;1259;71373;-70
2023/08/25 12:54:20;;;;;;;9.40;3.30;;;;;;;27.22;45.22;99178.42;108972;1259;57285;-70